Time;durP1;ratioP1;P1;durP2;ratioP2;P2;SDS_P1;SDS_P2;PMS_P1;PMS_P2;Temp;Humidity;BMP_temperature;BMP_pressure;BME280_temperature;BME280_humidity;BME280_pressure;Samples;Min_cycle;Max_cycle;Signal;HPM_P1;HPM_P2
2023/02/23 00:01:35;;;;;;;61.17;45.38;;;8.70;99.90;;;;;;5124546;27;20051;-52
2023/02/23 00:04:02;;;;;;;63.90;48.47;;;8.80;99.90;;;;;;5124852;27;20050;-53
2023/02/23 00:06:30;;;;;;;62.38;45.35;;;8.70;99.90;;;;;;5101933;27;20040;-53
2023/02/23 00:08:57;;;;;;;59.58;43.60;;;8.70;99.90;;;;;;5125300;27;20031;-53
2023/02/23 00:11:23;;;;;;;45.42;34.30;;;8.90;99.90;;;;;;5126118;27;20035;-52
2023/02/23 00:13:49;;;;;;;49.30;35.20;;;8.80;99.90;;;;;;5123786;27;20031;-53
2023/02/23 00:16:17;;;;;;;79.18;52.30;;;8.30;99.90;;;;;;5118571;27;20579;-53
2023/02/23 00:18:49;;;;;;;75.93;50.95;;;8.10;99.90;;;;;;5124166;27;21151;-52
2023/02/23 00:21:33;;;;;;;47.63;31.73;;;8.10;99.90;;;;;;5102656;27;20047;-51
2023/02/23 00:24:10;;;;;;;76.82;48.80;;;;;;;;;;5121719;27;20038;-50
2023/02/23 00:26:38;;;;;;;124.97;79.57;;;;;;;;;;5121350;27;20036;-52
2023/02/23 00:29:06;;;;;;;90.72;57.60;;;;;;;;;;5119596;27;20106;-51
2023/02/23 00:31:32;;;;;;;114.45;74.25;;;;;;;;;;5123633;27;20024;-51
2023/02/23 00:34:00;;;;;;;72.75;47.70;;;;;;;;;;5124830;27;20024;-51
2023/02/23 00:36:28;;;;;;;53.67;37.17;;;;;;;;;;5125610;27;20118;-51
2023/02/23 00:38:56;;;;;;;45.33;34.75;;;;;;;;;;5119323;27;20107;-51
2023/02/23 00:41:27;;;;;;;40.38;30.83;;;;;;;;;;5124143;27;20035;-51
2023/02/23 00:43:53;;;;;;;40.28;26.05;;;;;;;;;;5124175;27;20063;-51
2023/02/23 00:46:21;;;;;;;42.03;28.00;;;7.90;99.90;;;;;;5116775;27;20441;-52
2023/02/23 00:48:49;;;;;;;43.38;29.17;;;7.70;99.90;;;;;;5123253;27;20058;-50
2023/02/23 00:51:16;;;;;;;37.75;26.38;;;7.50;99.90;;;;;;5119476;27;20160;-52
2023/02/23 00:53:43;;;;;;;36.40;27.10;;;7.40;99.90;;;;;;5123908;27;20028;-51
2023/02/23 00:56:11;;;;;;;35.65;24.58;;;7.30;99.90;;;;;;5124715;27;20111;-51
2023/02/23 00:58:37;;;;;;;34.22;24.45;;;7.20;99.90;;;;;;5123086;27;20040;-51
2023/02/23 01:01:11;;;;;;;35.95;26.83;;;7.30;99.90;;;;;;5116917;27;20046;-50
2023/02/23 01:03:40;;;;;;;38.63;24.85;;;7.40;99.90;;;;;;5123354;27;20027;-51
2023/02/23 01:06:09;;;;;;;34.42;24.98;;;7.60;99.90;;;;;;5117362;27;20028;-51
2023/02/23 01:08:40;;;;;;;35.05;25.05;;;7.60;99.90;;;;;;5121582;27;20031;-50
2023/02/23 01:11:08;;;;;;;33.47;24.08;;;7.50;99.90;;;;;;5118783;27;20044;-50
2023/02/23 01:13:35;;;;;;;33.72;23.70;;;7.50;99.90;;;;;;5125125;27;20038;-51
2023/02/23 01:16:07;;;;;;;33.38;24.23;;;7.40;99.90;;;;;;5128013;27;20028;-50
2023/02/23 01:18:34;;;;;;;33.25;23.73;;;7.50;99.90;;;;;;5122493;27;20066;-51
2023/02/23 01:21:00;;;;;;;32.22;23.75;;;7.60;99.90;;;;;;5131411;27;20035;-52
2023/02/23 01:23:26;;;;;;;31.25;22.67;;;7.50;99.90;;;;;;5127028;27;20028;-51
2023/02/23 01:25:52;;;;;;;32.50;23.05;;;7.40;99.90;;;;;;5125278;27;20027;-50
2023/02/23 01:28:17;;;;;;;32.90;23.65;;;7.30;99.90;;;;;;5121571;27;20039;-50
2023/02/23 01:30:43;;;;;;;33.42;23.77;;;7.30;99.90;;;;;;5124971;28;20035;-51
2023/02/23 01:33:11;;;;;;;30.25;22.08;;;7.20;99.90;;;;;;5113806;28;20023;-51
2023/02/23 01:35:37;;;;;;;32.03;22.05;;;7.20;99.90;;;;;;5122541;28;20030;-52
2023/02/23 01:38:04;;;;;;;29.13;21.63;;;7.20;99.90;;;;;;5125108;28;20036;-50
2023/02/23 01:40:31;;;;;;;28.10;21.67;;;7.40;99.90;;;;;;5128271;27;20027;-51
2023/02/23 01:43:11;;;;;;;30.30;23.20;;;7.30;99.90;;;;;;5117791;28;20053;-53
2023/02/23 01:45:39;;;;;;;36.05;24.45;;;7.50;99.90;;;;;;5126434;27;20478;-53
2023/02/23 01:48:25;;;;;;;48.97;37.55;;;7.70;99.90;;;;;;5129491;27;20118;-51
2023/02/23 01:51:00;;;;;;;51.05;39.83;;;7.70;99.90;;;;;;5129224;27;20035;-50
2023/02/23 01:53:28;;;;;;;46.88;35.15;;;7.40;99.90;;;;;;5122722;27;20031;-50
2023/02/23 01:55:57;;;;;;;45.60;34.85;;;7.40;99.90;;;;;;5125490;27;20031;-51
2023/02/23 01:58:25;;;;;;;45.47;32.22;;;7.40;99.90;;;;;;5128378;27;20096;-51
2023/02/23 02:00:54;;;;;;;43.47;32.83;;;7.20;99.90;;;;;;5127181;27;20552;-51
2023/02/23 02:03:28;;;;;;;40.45;30.65;;;7.30;99.90;;;;;;5128575;27;20031;-52
2023/02/23 02:05:55;;;;;;;47.10;32.67;;;7.10;99.90;;;;;;5128412;27;20059;-50
2023/02/23 02:08:23;;;;;;;50.42;36.00;;;7.20;99.90;;;;;;5128376;27;20062;-50
2023/02/23 02:10:55;;;;;;;55.70;41.17;;;7.20;99.90;;;;;;5116926;27;20070;-52
2023/02/23 02:13:25;;;;;;;62.92;38.35;;;7.10;99.90;;;;;;5126136;27;20042;-51
2023/02/23 02:16:04;;;;;;;51.90;37.25;;;6.90;99.90;;;;;;5119721;27;20034;-52
2023/02/23 02:19:07;;;;;;;54.90;38.80;;;7.10;99.90;;;;;;5126365;27;20092;-51
2023/02/23 02:21:50;;;;;;;51.70;35.78;;;7.10;99.90;;;;;;5104478;28;20538;-51
2023/02/23 02:24:46;;;;;;;57.03;37.40;;;7.10;99.90;;;;;;5103636;28;20036;-50
2023/02/23 02:27:25;;;;;;;59.65;39.80;;;7.20;99.90;;;;;;5097226;28;20040;-50
2023/02/23 02:30:12;;;;;;;54.22;36.63;;;7.10;99.90;;;;;;5105722;28;20044;-52
2023/02/23 02:32:50;;;;;;;53.55;38.42;;;7.10;99.90;;;;;;5093554;28;20040;-52
2023/02/23 02:35:51;;;;;;;54.78;36.20;;;7.10;99.90;;;;;;5060722;28;20399;-51
2023/02/23 02:38:34;;;;;;;51.92;35.97;;;7.20;99.90;;;;;;5061488;28;20047;-52
2023/02/23 02:41:10;;;;;;;48.72;34.40;;;7.30;99.90;;;;;;5063283;28;20068;-51
2023/02/23 02:43:42;;;;;;;49.17;33.95;;;7.40;99.90;;;;;;5067209;28;20051;-51
2023/02/23 02:46:14;;;;;;;44.35;32.08;;;7.30;99.90;;;;;;5063083;28;20689;-51
2023/02/23 02:49:05;;;;;;;41.05;30.45;;;7.20;99.90;;;;;;5046438;28;20036;-51
2023/02/23 02:51:59;;;;;;;45.95;29.73;;;7.00;99.90;;;;;;5063466;28;20421;-50
2023/02/23 02:54:35;;;;;;;41.58;29.55;;;6.90;99.90;;;;;;5058030;28;20032;-50
2023/02/23 02:57:03;;;;;;;42.00;28.83;;;7.00;99.90;;;;;;5066763;28;20492;-51
2023/02/23 04:19:36;;;;;;;44.65;35.08;;;7.60;99.90;;;;;;5129176;27;20121;-51
2023/02/23 04:22:02;;;;;;;47.83;38.28;;;7.80;99.90;;;;;;5121386;27;20130;-51
2023/02/23 04:24:28;;;;;;;49.88;36.88;;;7.80;99.90;;;;;;5126713;27;20631;-51
2023/02/23 04:26:54;;;;;;;50.63;36.53;;;7.70;99.90;;;;;;5123822;27;20034;-50
2023/02/23 04:29:19;;;;;;;45.15;34.70;;;7.80;99.90;;;;;;5119959;27;20479;-51
2023/02/23 04:31:46;;;;;;;51.35;35.80;;;7.70;99.90;;;;;;5103971;27;20039;-50
2023/02/23 04:34:11;;;;;;;47.65;35.40;;;7.70;99.90;;;;;;5128680;27;20367;-50
2023/02/23 04:36:37;;;;;;;48.65;36.53;;;7.70;99.90;;;;;;5067884;27;20126;-51
2023/02/23 04:39:03;;;;;;;48.78;36.70;;;7.60;99.90;;;;;;5106012;28;20376;-51
2023/02/23 04:41:28;;;;;;;51.40;37.05;;;7.50;99.90;;;;;;5123815;27;20382;-51
2023/02/23 04:43:54;;;;;;;48.47;34.67;;;7.70;99.90;;;;;;5118177;27;20047;-50
2023/02/23 04:46:20;;;;;;;51.08;36.45;;;7.90;99.90;;;;;;5103311;27;20047;-51
2023/02/23 04:48:48;;;;;;;50.60;36.55;;;8.00;99.90;;;;;;5123615;27;20076;-50
2023/02/23 04:51:14;;;;;;;49.97;35.78;;;8.00;99.90;;;;;;5124718;27;20382;-51
2023/02/23 04:53:40;;;;;;;52.05;39.80;;;8.00;99.90;;;;;;5123970;27;20107;-51
2023/02/23 04:56:06;;;;;;;50.65;37.05;;;8.10;99.90;;;;;;5125506;27;20030;-50
2023/02/23 04:58:32;;;;;;;49.65;38.22;;;7.80;99.90;;;;;;5114588;27;20086;-51
2023/02/23 05:01:04;;;;;;;50.53;39.60;;;7.70;99.90;;;;;;5125128;27;20069;-51
2023/02/23 05:03:30;;;;;;;55.33;40.55;;;7.60;99.90;;;;;;5124292;27;20046;-51
2023/02/23 05:05:55;;;;;;;52.63;39.25;;;7.60;99.90;;;;;;5124546;27;20020;-52
2023/02/23 05:08:21;;;;;;;50.88;39.10;;;7.70;99.90;;;;;;5116395;27;20028;-51
2023/02/23 05:10:47;;;;;;;51.47;34.30;;;7.50;99.90;;;;;;5125014;27;20051;-51
2023/02/23 05:13:12;;;;;;;46.22;32.38;;;6.90;99.90;;;;;;5123008;27;20020;-51
2023/02/23 05:15:38;;;;;;;46.13;31.92;;;6.00;99.90;;;;;;5131544;27;20066;-52
2023/02/23 05:18:04;;;;;;;45.97;33.53;;;6.10;99.90;;;;;;5094704;28;20083;-51
2023/02/23 05:20:30;;;;;;;45.40;34.60;;;6.00;99.90;;;;;;5124988;27;20062;-52
2023/02/23 05:22:55;;;;;;;46.95;35.05;;;6.10;99.90;;;;;;5124916;27;20027;-51
2023/02/23 05:25:21;;;;;;;45.38;32.80;;;6.40;99.90;;;;;;5100293;28;20031;-51
2023/02/23 05:27:47;;;;;;;46.97;32.40;;;6.80;99.90;;;;;;5076156;28;20047;-51
2023/02/23 05:30:13;;;;;;;73.72;46.97;;;6.60;99.90;;;;;;5048054;28;20040;-51
2023/02/23 05:32:38;;;;;;;91.32;58.10;;;6.70;99.90;;;;;;5066031;28;20412;-51
2023/02/23 05:35:04;;;;;;;65.45;44.70;;;6.90;99.90;;;;;;5100200;28;20035;-51
2023/02/23 05:37:30;;;;;;;54.72;39.67;;;6.90;99.90;;;;;;5100246;28;20131;-51
2023/02/23 05:39:56;;;;;;;51.60;36.50;;;7.20;99.90;;;;;;5100286;28;20032;-51
2023/02/23 05:42:21;;;;;;;55.40;38.42;;;7.30;99.90;;;;;;5099383;28;20032;-51
2023/02/23 05:44:47;;;;;;;55.92;39.65;;;7.30;99.90;;;;;;5097714;28;20048;-51
2023/02/23 05:47:13;;;;;;;56.65;38.75;;;7.50;99.90;;;;;;5100127;28;20088;-50
2023/02/23 05:49:39;;;;;;;82.18;49.47;;;7.60;99.90;;;;;;5100006;28;20039;-51
2023/02/23 05:52:05;;;;;;;61.97;40.03;;;7.80;99.90;;;;;;5048275;28;20070;-51
2023/02/23 05:54:30;;;;;;;64.70;42.05;;;7.90;99.90;;;;;;5045245;28;20089;-52
2023/02/23 05:56:56;;;;;;;74.93;49.30;;;8.00;99.90;;;;;;5088769;28;20065;-52
2023/02/23 05:59:22;;;;;;;66.70;44.13;;;;;;;;;;5113172;28;20164;-51
2023/02/23 06:01:48;;;;;;;67.07;43.83;;;8.30;99.90;;;;;;5111753;28;20388;-51
2023/02/23 06:04:14;;;;;;;64.57;43.95;;;8.40;99.90;;;;;;5124614;27;20023;-51
2023/02/23 06:06:39;;;;;;;65.05;45.67;;;8.60;99.90;;;;;;5074286;28;20039;-50
2023/02/23 06:09:05;;;;;;;57.08;41.67;;;8.70;99.90;;;;;;5103523;28;20499;-52
2023/02/23 06:11:31;;;;;;;57.60;39.47;;;8.90;99.90;;;;;;5122535;27;20031;-51
2023/02/23 06:13:58;;;;;;;49.78;36.33;;;9.50;99.90;;;;;;5119776;27;20394;-50
2023/02/23 06:16:25;;;;;;;46.88;34.22;;;9.70;99.90;;;;;;5122513;27;20024;-51
2023/02/23 06:18:50;;;;;;;52.47;37.80;;;9.90;99.90;;;;;;5121622;28;20042;-52
2023/02/23 06:21:16;;;;;;;51.20;39.25;;;10.00;99.90;;;;;;5126868;27;20027;-51
2023/02/23 06:23:42;;;;;;;44.05;31.15;;;10.20;99.90;;;;;;5103418;28;20031;-51
2023/02/23 06:26:08;;;;;;;43.55;31.65;;;10.20;99.90;;;;;;5121605;27;20026;-53
2023/02/23 06:28:34;;;;;;;40.40;31.38;;;10.50;99.90;;;;;;5125353;27;20067;-51
2023/02/23 06:31:00;;;;;;;45.40;31.67;;;11.00;99.90;;;;;;5122023;27;20052;-51
2023/02/23 06:33:26;;;;;;;41.42;31.10;;;11.40;99.90;;;;;;5125801;27;20028;-52
2023/02/23 06:35:53;;;;;;;56.35;40.40;;;12.10;99.90;;;;;;5123186;27;20096;-52
2023/02/23 06:38:19;;;;;;;60.70;43.30;;;11.90;99.90;;;;;;5128165;27;20039;-52
2023/02/23 06:40:45;;;;;;;52.15;37.03;;;12.00;99.90;;;;;;5126137;27;20074;-52
2023/02/23 06:43:10;;;;;;;43.85;32.80;;;12.00;99.90;;;;;;5126230;27;20462;-52
2023/02/23 06:45:36;;;;;;;45.80;31.95;;;11.80;99.90;;;;;;5070217;27;20036;-52
2023/02/23 06:48:02;;;;;;;44.45;32.15;;;12.30;99.90;;;;;;5106947;27;20483;-53
2023/02/23 06:50:28;;;;;;;44.67;34.60;;;13.40;99.90;;;;;;5108474;28;20479;-51
2023/02/23 06:52:56;;;;;;;44.10;35.08;;;14.60;99.90;;;;;;5124407;27;20033;-53
2023/02/23 06:55:22;;;;;;;45.72;32.38;;;;;;;;;;5125780;27;20059;-52
2023/02/23 06:57:48;;;;;;;47.63;33.20;;;;;;;;;;5121262;27;20066;-52
2023/02/23 07:00:16;;;;;;;49.92;36.47;;;;;;;;;;5124697;27;20051;-52
2023/02/23 07:02:43;;;;;;;49.17;37.58;;;;;;;;;;5125411;27;20031;-51
2023/02/23 07:05:10;;;;;;;41.92;32.65;;;20.70;99.90;;;;;;5125469;27;20035;-51
2023/02/23 07:07:36;;;;;;;41.13;34.90;;;;;;;;;;5122860;27;20035;-51
2023/02/23 07:10:03;;;;;;;47.55;39.38;;;22.20;99.90;;;;;;5122642;27;20026;-52
2023/02/23 07:12:30;;;;;;;44.42;35.45;;;22.00;92.60;;;;;;5125533;27;20031;-52
2023/02/23 07:14:56;;;;;;;45.15;36.08;;;21.90;92.90;;;;;;5122969;27;20078;-50
2023/02/23 07:17:22;;;;;;;43.88;36.40;;;;;;;;;;5121881;27;20067;-51
2023/02/23 07:19:48;;;;;;;46.55;36.03;;;;;;;;;;5127664;27;20070;-51
2023/02/23 07:22:14;;;;;;;44.08;34.17;;;23.80;91.30;;;;;;5123203;27;20368;-51
2023/02/23 07:24:39;;;;;;;43.95;36.05;;;24.20;91.00;;;;;;5125088;27;20020;-51
2023/02/23 07:27:05;;;;;;;39.63;33.53;;;24.70;90.20;;;;;;5122580;27;20043;-51
2023/02/23 07:29:31;;;;;;;37.55;31.48;;;24.90;88.40;;;;;;5123107;27;20034;-51
2023/02/23 07:31:56;;;;;;;41.05;30.70;;;24.80;97.10;;;;;;5122912;27;20081;-49
2023/02/23 07:34:22;;;;;;;41.17;31.73;;;24.60;87.50;;;;;;5085769;27;20044;-49
2023/02/23 07:36:48;;;;;;;36.67;30.30;;;24.60;86.60;;;;;;5085009;27;20035;-48
2023/02/23 07:39:14;;;;;;;39.10;30.88;;;24.60;86.10;;;;;;5122260;27;20043;-48
2023/02/23 07:41:40;;;;;;;33.25;28.70;;;;;;;;;;5118305;27;20040;-50
2023/02/23 07:44:06;;;;;;;33.05;29.33;;;;;;;;;;5119557;27;20044;-49
2023/02/23 07:46:32;;;;;;;35.33;29.90;;;25.60;99.90;;;;;;5121566;27;20195;-50
2023/02/23 07:48:58;;;;;;;35.45;29.50;;;26.30;83.60;;;;;;5085615;27;20518;-50
2023/02/23 07:51:23;;;;;;;33.33;29.55;;;26.70;83.30;;;;;;5103866;27;20036;-49
2023/02/23 07:53:50;;;;;;;32.97;29.38;;;;;;;;;;5126483;27;20026;-49
2023/02/23 07:56:15;;;;;;;34.40;29.75;;;26.60;79.70;;;;;;5086192;27;20053;-50
2023/02/23 07:58:43;;;;;;;34.17;30.13;;;26.60;80.60;;;;;;5123879;27;20039;-50
2023/02/23 08:01:09;;;;;;;35.42;30.30;;;26.60;80.00;;;;;;5122890;27;20452;-49
2023/02/23 08:03:35;;;;;;;35.22;29.98;;;;;;;;;;5124051;27;20032;-49
2023/02/23 08:06:01;;;;;;;41.35;29.70;;;27.30;99.90;;;;;;5126781;27;20035;-50
2023/02/23 08:08:27;;;;;;;31.67;28.10;;;27.10;94.10;;;;;;5126248;27;20042;-50
2023/02/23 08:11:02;;;;;;;35.58;28.38;;;26.00;79.00;;;;;;5087923;28;20048;-50
2023/02/23 08:13:28;;;;;;;33.42;27.73;;;26.20;79.70;;;;;;5119748;27;20364;-50
2023/02/23 08:15:54;;;;;;;36.60;28.10;;;26.10;79.10;;;;;;5122042;27;20122;-49
2023/02/23 08:18:20;;;;;;;35.10;28.15;;;25.60;79.10;;;;;;5125739;27;20123;-49
2023/02/23 08:20:46;;;;;;;34.92;28.63;;;26.10;80.00;;;;;;5123866;27;20081;-48
2023/02/23 08:23:12;;;;;;;36.80;29.35;;;26.20;79.60;;;;;;5106805;28;20043;-50
2023/02/23 08:25:38;;;;;;;33.75;29.15;;;;;;;;;;5126044;27;20054;-49
2023/02/23 08:28:05;;;;;;;34.70;28.83;;;27.10;92.10;;;;;;5117324;27;20112;-50
2023/02/23 08:30:32;;;;;;;32.22;28.35;;;27.10;79.30;;;;;;5119361;27;20502;-51
2023/02/23 08:33:00;;;;;;;36.95;30.15;;;;;;;;;;5098729;27;20045;-50
2023/02/23 08:35:26;;;;;;;33.30;29.30;;;;;;;;;;5128308;27;20031;-49
2023/02/23 08:37:52;;;;;;;34.40;29.58;;;28.00;78.70;;;;;;5130821;27;20072;-50
2023/02/23 08:40:19;;;;;;;32.97;29.25;;;28.30;78.60;;;;;;5119093;27;20104;-50
2023/02/23 08:42:47;;;;;;;31.90;28.55;;;28.40;78.40;;;;;;5123219;27;20058;-49
2023/02/23 08:45:13;;;;;;;30.58;26.58;;;28.50;78.00;;;;;;5116559;27;20039;-50
2023/02/23 08:47:39;;;;;;;33.67;26.65;;;27.80;76.90;;;;;;5125230;27;20027;-50
2023/02/23 08:50:06;;;;;;;32.90;27.67;;;27.00;77.10;;;;;;5122862;27;20122;-50
2023/02/23 08:52:31;;;;;;;30.80;27.52;;;26.00;77.90;;;;;;5122000;27;20019;-50
2023/02/23 08:54:57;;;;;;;30.50;26.58;;;25.20;78.90;;;;;;5100805;27;20043;-49
2023/02/23 08:57:23;;;;;;;30.58;26.23;;;25.20;79.40;;;;;;5124316;27;20023;-49
2023/02/23 08:59:49;;;;;;;34.33;27.92;;;25.10;79.70;;;;;;5123711;27;20088;-50
2023/02/23 09:02:15;;;;;;;31.48;25.77;;;25.30;80.20;;;;;;5125275;27;20042;-49
2023/02/23 09:04:40;;;;;;;28.90;25.77;;;24.50;79.40;;;;;;5125544;27;20496;-50
2023/02/23 09:07:07;;;;;;;29.48;26.23;;;23.80;80.40;;;;;;5118988;27;20130;-50
2023/02/23 09:09:33;;;;;;;29.80;25.33;;;23.00;81.50;;;;;;5113972;28;20106;-50
2023/02/23 09:11:59;;;;;;;30.20;25.92;;;22.70;82.10;;;;;;5117079;27;20142;-52
2023/02/23 09:14:26;;;;;;;29.55;26.38;;;22.60;83.30;;;;;;5125317;27;20027;-50
2023/02/23 09:16:52;;;;;;;29.70;25.67;;;23.30;84.40;;;;;;5122965;27;20031;-51
2023/02/23 09:19:19;;;;;;;28.85;25.70;;;23.90;83.60;;;;;;5122951;27;20550;-50
2023/02/23 09:21:45;;;;;;;29.65;25.98;;;24.20;83.00;;;;;;5104130;28;20043;-49
2023/02/23 09:24:10;;;;;;;27.52;24.58;;;25.00;82.70;;;;;;5119657;27;20046;-49
2023/02/23 09:26:38;;;;;;;28.02;23.73;;;25.60;82.40;;;;;;5123525;27;20093;-49
2023/02/23 09:29:06;;;;;;;28.08;23.23;;;25.90;80.00;;;;;;5103581;28;20092;-49
2023/02/23 09:31:32;;;;;;;28.35;24.90;;;;;;;;;;5124278;27;20095;-49
2023/02/23 09:34:01;;;;;;;27.17;24.15;;;26.80;79.10;;;;;;5122841;27;20046;-50
2023/02/23 09:36:28;;;;;;;26.95;23.77;;;27.30;79.00;;;;;;5119924;27;20118;-49
2023/02/23 09:38:56;;;;;;;28.27;23.95;;;27.80;78.70;;;;;;5120593;28;20084;-49
2023/02/23 09:41:25;;;;;;;23.42;20.92;;;28.00;78.30;;;;;;5065972;28;20040;-49
2023/02/23 09:44:26;;;;;;;26.35;21.15;;;;;;;;;;5100193;28;20031;-49
2023/02/23 09:47:13;;;;;;;26.35;23.52;;;26.10;76.70;;;;;;5070148;28;20040;-49
2023/02/23 09:49:41;;;;;;;24.20;19.15;;;26.20;78.40;;;;;;5069998;28;20037;-49
2023/02/23 09:52:19;;;;;;;21.42;18.80;;;24.60;77.60;;;;;;5010113;28;20124;-50
2023/02/23 09:54:46;;;;;;;24.02;20.23;;;24.30;78.80;;;;;;5010799;28;20133;-50
2023/02/23 09:57:17;;;;;;;23.58;19.10;;;24.10;81.00;;;;;;5010186;28;20041;-50
2023/02/23 09:59:44;;;;;;;21.90;17.90;;;25.10;81.10;;;;;;4993481;28;20046;-51
2023/02/23 10:02:19;;;;;;;21.98;19.10;;;;;;;;;;5014068;28;20041;-54
2023/02/23 10:04:50;;;;;;;21.40;16.85;;;25.80;78.00;;;;;;4971110;28;20046;-53
2023/02/23 10:07:25;;;;;;;21.17;18.33;;;;;;;;;;5013513;28;20050;-52
2023/02/23 10:09:53;;;;;;;20.27;17.52;;;26.40;78.10;;;;;;5014043;28;20457;-53
2023/02/23 10:12:31;;;;;;;22.02;18.00;;;26.40;78.00;;;;;;5023445;28;20087;-53
2023/02/23 10:15:00;;;;;;;20.10;17.95;;;;;;;;;;5015514;28;20045;-53
2023/02/23 10:17:50;;;;;;;19.90;17.67;;;27.10;77.60;;;;;;5017584;28;20045;-52
2023/02/23 10:20:33;;;;;;;16.75;15.05;;;27.30;77.60;;;;;;5044784;28;20082;-53
2023/02/23 10:23:03;;;;;;;11.70;10.30;;;;;;;;;;5085381;28;20086;-53
2023/02/23 10:25:32;;;;;;;10.07;7.65;;;26.30;73.50;;;;;;5076550;28;20535;-54
2023/02/23 10:28:01;;;;;;;7.88;7.10;;;26.10;74.70;;;;;;5084292;28;20040;-53
2023/02/23 10:30:32;;;;;;;8.05;7.15;;;25.70;76.10;;;;;;5120997;27;20483;-53
2023/02/23 10:33:17;;;;;;;8.65;7.75;;;25.40;75.50;;;;;;5128207;27;20043;-54
2023/02/23 10:35:44;;;;;;;13.57;8.75;;;26.30;75.30;;;;;;5134247;27;20033;-55
2023/02/23 10:38:17;;;;;;;8.23;6.75;;;25.40;74.10;;;;;;5125387;27;20043;-53
2023/02/23 10:40:49;;;;;;;7.72;6.88;;;25.70;75.30;;;;;;5129207;27;20034;-53
2023/02/23 10:43:14;;;;;;;8.45;7.65;;;25.80;75.40;;;;;;5121203;27;20023;-53
2023/02/23 10:45:46;;;;;;;8.10;7.30;;;25.90;75.20;;;;;;5128002;27;20383;-54
2023/02/23 10:48:19;;;;;;;8.85;7.82;;;24.60;74.40;;;;;;5121464;27;20043;-54
2023/02/23 10:50:48;;;;;;;8.93;8.00;;;25.20;75.30;;;;;;5077529;28;20515;-50
2023/02/23 10:53:24;;;;;;;12.05;8.43;;;24.70;75.50;;;;;;5116163;27;20537;-50
2023/02/23 10:56:12;;;;;;;11.02;7.72;;;25.50;76.20;;;;;;5104300;28;20043;-50
2023/02/23 10:58:58;;;;;;;8.25;7.43;;;25.90;76.00;;;;;;5121262;27;20051;-50
2023/02/23 11:01:43;;;;;;;8.32;7.22;;;26.40;74.40;;;;;;5069240;28;20403;-50
2023/02/23 11:04:25;;;;;;;11.20;8.52;;;26.20;74.50;;;;;;5130206;27;20074;-50
2023/02/23 11:07:06;;;;;;;10.55;8.93;;;26.60;75.40;;;;;;5125737;27;20019;-50
2023/02/23 11:09:33;;;;;;;9.25;7.07;;;26.60;75.10;;;;;;5121577;27;20043;-50
2023/02/23 11:12:01;;;;;;;9.27;7.60;;;26.70;73.50;;;;;;5121977;27;20037;-50
2023/02/23 11:14:29;;;;;;;9.98;7.95;;;26.10;73.10;;;;;;5098609;28;20461;-50
2023/02/23 11:16:57;;;;;;;9.20;8.30;;;25.80;74.80;;;;;;5102621;28;20044;-49
2023/02/23 11:19:33;;;;;;;8.63;7.72;;;;;;;;;;5098878;28;20175;-49
2023/02/23 11:22:00;;;;;;;8.60;7.72;;;27.40;74.10;;;;;;5080081;28;20079;-49
2023/02/23 11:24:33;;;;;;;8.70;7.53;;;;;;;;;;5084218;28;20032;-50
2023/02/23 11:27:02;;;;;;;8.63;7.28;;;25.90;74.00;;;;;;5081981;28;20036;-49
2023/02/23 11:29:28;;;;;;;11.70;8.07;;;25.60;74.40;;;;;;5078517;28;20041;-51
2023/02/23 11:31:56;;;;;;;7.88;7.07;;;25.50;74.20;;;;;;5080862;28;20081;-50
2023/02/23 11:34:34;;;;;;;8.70;7.50;;;25.40;74.10;;;;;;5082885;28;20400;-50
2023/02/23 11:37:16;;;;;;;9.65;7.68;;;25.70;74.90;;;;;;5079811;28;20028;-50
2023/02/23 11:39:56;;;;;;;8.07;7.28;;;24.80;74.90;;;;;;5079366;28;20087;-50
2023/02/23 11:42:24;;;;;;;7.93;6.68;;;;;;;;;;5085396;28;20047;-50
2023/02/23 11:45:06;;;;;;;8.30;6.50;;;24.90;75.00;;;;;;5097395;27;20433;-50
2023/02/23 11:47:37;;;;;;;9.20;7.20;;;25.40;76.60;;;;;;5124727;27;20027;-50
2023/02/23 11:50:05;;;;;;;11.03;7.40;;;25.40;74.50;;;;;;5124582;27;20027;-50
2023/02/23 11:52:31;;;;;;;8.65;6.97;;;24.70;74.50;;;;;;5122775;27;20288;-50
2023/02/23 11:55:00;;;;;;;18.95;11.77;;;24.60;75.30;;;;;;5126713;27;20026;-50
2023/02/23 11:57:32;;;;;;;11.30;7.38;;;25.30;75.60;;;;;;5124637;27;20047;-50
2023/02/23 11:59:59;;;;;;;;;;;25.40;74.60;;;;;;5118942;27;20518;-50
2023/02/23 12:02:26;;;;;;;8.38;6.50;;;;;;;;;;5125458;27;20339;-50
2023/02/23 12:05:07;;;;;;;8.73;6.88;;;23.90;77.40;;;;;;5121088;27;20044;-50
2023/02/23 12:07:40;;;;;;;10.07;6.95;;;;;;;;;;5119068;27;20126;-48
2023/02/23 12:10:10;;;;;;;9.93;6.97;;;;;;;;;;5100817;27;20050;-51
2023/02/23 12:12:44;;;;;;;12.45;7.78;;;;;;;;;;5123836;27;20038;-51
2023/02/23 12:15:15;;;;;;;17.17;7.82;;;;;;;;;;5121782;27;20028;-51
2023/02/23 12:17:46;;;;;;;11.70;9.50;;;;;;;;;;5126904;27;20470;-51
2023/02/23 12:20:13;;;;;;;9.88;6.65;;;;;;;;;;5127012;27;20027;-50
2023/02/23 12:22:42;;;;;;;10.13;7.18;;;;;;;;;;5130095;27;20050;-51
2023/02/23 12:25:17;;;;;;;11.35;7.47;;;;;;;;;;5130519;27;20378;-51
2023/02/23 12:27:46;;;;;;;11.75;8.23;;;;;;;;;;5131156;27;20019;-50
2023/02/23 12:30:16;;;;;;;14.00;7.88;;;;;;;;;;5130941;27;20360;-50
2023/02/23 12:32:52;;;;;;;13.75;7.90;;;;;;;;;;5139909;27;20406;-50
2023/02/23 12:35:22;;;;;;;11.85;7.57;;;;;;;;;;5122231;27;20052;-50
2023/02/23 12:37:52;;;;;;;11.98;8.00;;;;;;;;;;5123676;27;20377;-51
2023/02/23 12:40:27;;;;;;;18.33;10.02;;;23.20;80.70;;;;;;5125795;27;20031;-50
2023/02/23 12:42:57;;;;;;;10.38;8.25;;;22.70;77.90;;;;;;5122739;27;20055;-50
2023/02/23 12:45:49;;;;;;;11.95;9.10;;;23.00;78.40;;;;;;5130492;27;20039;-50
2023/02/23 12:48:22;;;;;;;;;;;23.50;77.70;;;;;;5126456;27;20027;-50
2023/02/23 12:50:54;;;;;;;10.07;8.35;;;23.90;76.80;;;;;;5123198;27;20001;-50
2023/02/23 12:53:29;;;;;;;12.70;9.32;;;23.90;76.60;;;;;;5123010;27;20062;-50
2023/02/23 12:56:19;;;;;;;12.95;10.13;;;23.40;76.60;;;;;;5144160;27;20402;-51
2023/02/23 12:59:13;;;;;;;11.32;8.80;;;23.20;78.70;;;;;;5125796;27;20072;-51
2023/02/23 13:01:59;;;;;;;11.05;9.80;;;23.50;79.00;;;;;;5123252;27;20091;-50
2023/02/23 13:04:44;;;;;;;12.93;9.10;;;24.00;77.40;;;;;;5126450;27;20122;-50
2023/02/23 13:07:19;;;;;;;11.55;9.55;;;23.40;76.20;;;;;;5125150;27;20044;-51
2023/02/23 13:09:59;;;;;;;12.27;9.85;;;22.70;77.50;;;;;;5129289;27;20023;-50
2023/02/23 13:12:49;;;;;;;11.88;8.95;;;21.70;78.20;;;;;;5128858;27;20058;-50
2023/02/23 13:15:41;;;;;;;12.27;10.15;;;22.30;79.40;;;;;;5127118;27;20030;-50
2023/02/23 13:18:13;;;;;;;14.63;10.40;;;22.10;79.40;;;;;;5069964;28;20040;-50
2023/02/23 13:20:55;;;;;;;11.82;9.63;;;22.00;78.50;;;;;;5070252;28;20045;-50
2023/02/23 13:23:31;;;;;;;;;;;22.40;78.60;;;;;;5048315;28;20044;-51
2023/02/23 13:26:19;;;;;;;13.00;9.40;;;22.30;78.70;;;;;;5070330;28;19909;-50
2023/02/23 13:28:59;;;;;;;11.00;9.43;;;21.80;78.80;;;;;;5068819;28;20127;-50
2023/02/23 13:31:29;;;;;;;16.73;11.18;;;;;;;;;;5070284;28;20035;-50
2023/02/23 13:33:58;;;;;;;14.32;10.85;;;21.40;99.90;;;;;;5044461;28;20183;-51
2023/02/23 13:36:26;;;;;;;14.30;11.38;;;21.50;92.00;;;;;;5069552;28;20135;-51
2023/02/23 13:39:21;;;;;;;16.05;13.27;;;21.50;91.00;;;;;;5068403;28;20041;-52
2023/02/23 13:42:00;;;;;;;15.38;10.25;;;20.90;80.00;;;;;;5070155;28;20102;-51
2023/02/23 13:45:13;;;;;;;13.40;9.45;;;21.00;80.40;;;;;;5070584;28;20043;-51
2023/02/23 13:47:55;;;;;;;17.48;10.23;;;20.80;80.50;;;;;;4952044;29;20047;-51
2023/02/23 13:50:23;;;;;;;13.30;9.77;;;21.20;81.20;;;;;;4951861;29;20047;-50
2023/02/23 13:52:57;;;;;;;12.23;9.85;;;21.00;80.40;;;;;;4968101;28;20061;-51
2023/02/23 13:55:25;;;;;;;13.07;9.90;;;21.50;79.90;;;;;;4969658;28;20104;-52
2023/02/23 13:58:03;;;;;;;14.90;11.75;;;21.10;79.60;;;;;;4978506;28;20070;-51
2023/02/23 14:00:29;;;;;;;12.77;9.82;;;21.30;80.30;;;;;;4978727;28;20048;-52
2023/02/23 14:02:55;;;;;;;9.35;7.82;;;21.10;79.90;;;;;;4977602;28;20514;-52
2023/02/23 14:05:24;;;;;;;10.68;8.85;;;21.30;79.70;;;;;;4980512;28;20125;-51
2023/02/23 14:08:02;;;;;;;12.63;8.43;;;21.50;79.40;;;;;;4980719;28;20493;-52
2023/02/23 14:10:40;;;;;;;13.27;10.43;;;21.50;79.40;;;;;;4980894;28;20447;-51
2023/02/23 14:13:14;;;;;;;13.02;10.48;;;21.10;79.00;;;;;;4980438;28;20031;-51
2023/02/23 14:15:46;;;;;;;8.48;7.45;;;21.40;79.90;;;;;;4977277;28;20046;-51
2023/02/23 14:18:17;;;;;;;15.40;9.13;;;21.70;79.10;;;;;;4985023;28;20054;-51
2023/02/23 14:21:20;;;;;;;13.38;9.98;;;21.60;79.50;;;;;;4980602;28;20047;-51
2023/02/23 14:24:03;;;;;;;11.35;8.88;;;;;;;;;;5002514;28;20060;-51
2023/02/23 14:26:31;;;;;;;15.80;11.85;;;19.00;99.90;;;;;;5064504;28;20047;-52
2023/02/23 14:29:09;;;;;;;9.68;7.30;;;;;;;;;;5098539;28;20032;-51